• Join FlightAware (Why Join?)
  • Login
  • US Flag 
09:36PM EST


 

Airport Tracker/Info


-or-


 

Live Flight TrackerFlight Track Log ✈ EJA831 ✈ 23-Sep-2013 ✈ KEUG - KMSO

Flight Track Log - Related Links

Times and Time Zones

All times are in EDT time to prevent confusion due to time zone crossing. See the EJA831 flight status page for this flight to view local times or setup timezone preferences in your user account.

Time Position Orientation Groundspeed Altitude Reporting Facility
EDT Latitude Longitude Course Direction KTS MPH feet Rate Location/Type
03:09PM 44.1008 -123.2183 140° Southeast 188 216 2,000  Level Seattle Center
03:10PM 44.0536 -123.1642 140° Southeast 272 313 6,500 3,420 Climbing Seattle Center
03:11PM 44.0894 -123.0606 64° Northeast 305 351 9,000 3,120 Climbing Seattle Center
03:12PM 44.1292 -122.9636 60° Northeast 292 336 12,900 3,420 Climbing Seattle Center
03:13PM 44.1658 -122.8625 63° Northeast 299 344 16,100 2,160 Climbing Seattle Center
03:14PM 44.1981 -122.7253 72° East 377 434 17,300 1,320 Climbing Seattle Center
03:15PM 44.2325 -122.5675 73° East 422 486 18,800 780 Climbing Seattle Center
03:16PM 44.2658 -122.4128 73° East 420 483 19,000 840 Climbing Seattle Center
03:17PM 44.3319 -122.2356 62° Northeast 441 507 20,600 1,680 Climbing Seattle Center
03:18PM 44.3983 -122.0889 58° Northeast 447 514 22,500 2,160 Climbing Seattle Center
03:19PM 44.4600 -121.9433 59° Northeast 439 505 25,100 2,400 Climbing Seattle Center
03:20PM 44.5183 -121.8125 58° Northeast 431 496 27,400 2,340 Climbing Seattle Center
03:21PM 44.5806 -121.6722 58° Northeast 427 491 29,900 2,220 Climbing Seattle Center
03:22PM 44.6403 -121.5294 60° Northeast 426 490 32,000 1,500 Climbing Seattle Center
03:23PM 44.7044 -121.3789 59° Northeast 445 512 33,000 480 Climbing Seattle Center
03:24PM 44.7883 -121.1800 59° Northeast 492 566 33,000  Level Seattle Center
03:25PM 44.8608 -121.0078 59° Northeast 509 586 33,000  Level Seattle Center
03:26PM 44.9333 -120.8336 59° Northeast 514 592 33,000  Level Seattle Center
03:27PM 45.0064 -120.6583 59° Northeast 517 595 33,000  Level Seattle Center
03:28PM 45.0783 -120.4819 60° Northeast 516 594 33,000  Level Seattle Center
03:29PM 45.1511 -120.3058 60° Northeast 514 592 33,000  Level Seattle Center
03:30PM 45.2250 -120.1289 59° Northeast 516 594 33,000  Level Seattle Center
03:31PM 45.2967 -119.9517 60° Northeast 512 589 33,000  Level Seattle Center
03:32PM 45.3683 -119.7756 60° Northeast 512 589 33,000  Level Seattle Center
03:33PM 45.4381 -119.5981 61° Northeast 513 590 33,000  Level Seattle Center
03:34PM 45.5089 -119.4228 60° Northeast 512 589 33,000  Level Seattle Center
03:35PM 45.5792 -119.2450 60° Northeast 515 593 33,000  Level Seattle Center
03:36PM 45.6500 -119.0672 60° Northeast 516 594 33,000  Level Seattle Center
03:37PM 45.7242 -118.8925 59° Northeast 519 597 33,000  Level Seattle Center
03:38PM 45.8306 -118.7078 50° Northeast 504 580 33,000  Level Seattle Center
03:39PM 45.9178 -118.5506 51° Northeast 504 580 33,000  Level Seattle Center
03:41PM 45.9992 -118.4033 51° Northeast 506 582 33,000  Level Seattle Center
03:42PM 46.0869 -118.2475 51° Northeast 504 580 33,000  Level Seattle Center
03:43PM 46.1733 -118.0892 52° Northeast 505 581 33,000  Level Seattle Center
03:44PM 46.2600 -117.9314 51° Northeast 504 580 33,000  Level Seattle Center
03:45PM 46.3631 -117.7417 52° Northeast 503 579 33,000  Level Seattle Center
03:46PM 46.4494 -117.5825 52° Northeast 505 581 33,000  Level Seattle Center
03:47PM 46.5333 -117.4214 53° Northeast 503 579 33,000  Level Seattle Center
03:48PM 46.5792 -117.2228 71° East 521 600 33,000  Level Seattle Center
03:49PM 46.6039 -117.0139 80° East 528 608 33,000 -600 Level Seattle Center
03:50PM 46.6283 -116.8067 80° East 525 604 31,800 -1,500 Descending Seattle Center
03:51PM 46.6533 -116.6006 80° East 523 602 30,000 -1,800 Descending Seattle Center
03:52PM 46.6758 -116.4008 81° East 511 588 28,200 -1,800 Descending Seattle Center
03:53PM 46.6981 -116.2069 80° East 497 572 26,400 -1,980 Descending Seattle Center
03:54PM 46.7247 -115.9731 80° East 491 565 24,200 -1,980 Descending Seattle Center
03:55PM 46.7439 -115.7914 81° East 468 539 22,400 -1,800 Descending Seattle Center
03:56PM 46.7639 -115.6167 80° East 449 517 20,600 -1,800 Descending Seattle Center
03:57PM 46.7814 -115.4481 81° East 431 496 18,800 -1,740 Descending Seattle Center
03:58PM 46.7986 -115.2797 81° East 418 481 17,100 -1,740 Descending Seattle Center
03:59PM 46.8150 -115.1189 81° East 408 470 15,300 -1,080 Descending Seattle Center
04:00PM 46.8319 -114.9608 81° East 400 460 15,000 -180 Descending Seattle Center
04:01PM 46.8475 -114.7997 82° East 401 461 15,000 -600 Level Seattle Center
04:02PM 46.8464 -114.6422 91° East 394 453 13,800 -1,380 Descending Seattle Center
04:03PM 46.8022 -114.5075 116° Southeast 377 434 12,200 -960 Descending Seattle Center
04:04PM 46.7519 -114.3544 116° Southeast 363 418 11,900 -180 Descending Seattle Center
04:05PM 46.7100 -114.2294 116° Southeast 355 409 11,900  Level Seattle Center
04:06PM 46.6806 -114.1022 109° East 345 397 11,900 -180 Level Seattle Center
04:07PM 46.7067 -114.0172 66° East 303 349 11,600 -1,140 Descending Seattle Center
04:08PM 46.7567 -114.0281 352° North 223 257 9,700 -2,100 Descending Seattle Center
04:09PM 46.8011 -114.0289 359° North 183 211 7,400 -2,160 Descending Seattle Center
04:10PM 46.8442 -114.0169 11° North 166 191 5,300 -1,500 Descending Seattle Center
04:12PM 46.8933 -114.0522 334° Northwest 122 140 3,600 -900 Descending Salt Lake Center
04:13PM 46.9111 -114.0836 310° West 112 129 3,100 -540 Descending Salt Lake Center